createdAt,value
2022-10-06T00:00:03.728Z,0.00
2022-10-06T00:01:03.796Z,0.00
2022-10-06T00:02:03.706Z,0.00
2022-10-06T00:03:03.697Z,0.00
2022-10-06T00:04:03.686Z,0.00
2022-10-06T00:05:03.736Z,0.00
2022-10-06T00:06:03.668Z,0.00
2022-10-06T00:07:03.654Z,0.00
2022-10-06T00:08:03.659Z,0.00
2022-10-06T00:09:03.634Z,0.00
2022-10-06T00:10:03.624Z,0.00
2022-10-06T00:11:03.609Z,0.00
2022-10-06T00:12:03.598Z,0.00
2022-10-06T00:13:03.589Z,0.00
2022-10-06T00:14:03.649Z,0.00
2022-10-06T00:15:03.567Z,0.00
2022-10-06T00:16:03.580Z,0.00
2022-10-06T00:17:03.544Z,0.00
2022-10-06T00:18:03.539Z,0.00
2022-10-06T00:19:03.524Z,0.00
2022-10-06T00:20:03.512Z,0.00
2022-10-06T00:21:03.602Z,0.00
2022-10-06T00:22:03.491Z,0.00
2022-10-06T00:23:03.478Z,0.00
2022-10-06T00:24:03.485Z,0.00
2022-10-06T00:25:03.474Z,0.00
2022-10-06T00:26:03.446Z,0.00
2022-10-06T00:27:03.438Z,0.00
2022-10-06T00:28:03.498Z,0.00
2022-10-06T00:29:03.463Z,0.00
2022-10-06T00:30:03.402Z,0.00
2022-10-06T00:31:03.432Z,0.00
2022-10-06T00:32:03.379Z,0.00
2022-10-06T00:33:03.373Z,0.00
2022-10-06T00:34:03.411Z,0.00
2022-10-06T00:35:03.347Z,0.00
2022-10-06T00:36:03.336Z,0.00
2022-10-06T00:37:03.326Z,0.00
2022-10-06T00:39:03.403Z,0.00
2022-10-06T00:40:03.343Z,0.00
2022-10-06T00:41:03.280Z,0.00
2022-10-06T00:42:03.312Z,0.00
2022-10-06T00:43:03.258Z,0.00
2022-10-06T00:44:03.249Z,0.00
2022-10-06T00:45:03.235Z,0.00
2022-10-06T00:46:03.267Z,0.00
2022-10-06T00:47:03.262Z,0.00
2022-10-06T00:48:03.206Z,0.00
2022-10-06T00:50:03.181Z,0.00
2022-10-06T00:51:03.172Z,0.00
2022-10-06T00:52:03.254Z,0.00
2022-10-06T00:53:03.149Z,0.00
2022-10-06T00:54:03.138Z,0.00
2022-10-06T00:55:03.127Z,0.00
2022-10-06T00:56:03.131Z,0.00
2022-10-06T00:57:03.108Z,0.00
2022-10-06T00:58:03.091Z,0.00
2022-10-06T00:59:03.083Z,0.00
2022-10-06T01:00:03.271Z,0.00
2022-10-06T01:01:03.167Z,0.00
2022-10-06T01:02:03.052Z,0.00
2022-10-06T01:03:03.100Z,0.00
2022-10-06T01:04:03.032Z,0.00
2022-10-06T01:05:03.015Z,0.00
2022-10-06T01:06:03.006Z,0.00
2022-10-06T01:07:02.992Z,0.00
2022-10-06T01:08:02.983Z,0.00
2022-10-06T01:09:02.970Z,0.00
2022-10-06T01:10:02.962Z,0.00
2022-10-06T01:11:02.948Z,0.00
2022-10-06T01:12:02.958Z,0.00
2022-10-06T01:13:02.925Z,0.00
2022-10-06T01:14:02.916Z,0.00
2022-10-06T01:15:02.904Z,0.00
2022-10-06T01:16:02.966Z,0.00
2022-10-06T01:17:02.889Z,0.00
2022-10-06T01:18:02.873Z,0.00
2022-10-06T01:19:02.860Z,0.00
2022-10-06T01:20:02.849Z,0.00
2022-10-06T01:21:02.838Z,0.00
2022-10-06T01:22:02.829Z,0.00
2022-10-06T01:23:02.815Z,0.00
2022-10-06T01:24:02.803Z,0.00
2022-10-06T01:25:02.796Z,0.00
2022-10-06T01:26:02.784Z,0.00
2022-10-06T01:27:02.769Z,0.00
2022-10-06T01:28:02.863Z,0.00
2022-10-06T01:29:02.747Z,0.00
2022-10-06T01:30:02.738Z,0.00
2022-10-06T01:31:02.892Z,0.00
2022-10-06T01:32:02.714Z,0.00
2022-10-06T01:33:02.706Z,0.00
2022-10-06T01:34:02.694Z,0.00
2022-10-06T01:35:02.679Z,0.00
2022-10-06T01:36:02.671Z,0.00
2022-10-06T01:37:02.657Z,0.00
2022-10-06T01:38:02.650Z,0.00
2022-10-06T01:39:02.636Z,0.00
2022-10-06T01:40:02.625Z,0.00
2022-10-06T01:41:02.614Z,0.00
2022-10-06T01:42:02.604Z,0.00
2022-10-06T01:43:02.593Z,0.00
2022-10-06T01:44:02.599Z,0.00
2022-10-06T01:45:02.569Z,0.00
2022-10-06T01:46:02.632Z,0.00
2022-10-06T01:47:02.547Z,0.00
2022-10-06T01:48:02.536Z,0.00
2022-10-06T01:49:02.525Z,0.00
2022-10-06T01:50:02.517Z,0.00
2022-10-06T01:51:02.499Z,0.00
2022-10-06T01:52:02.491Z,0.00
2022-10-06T01:53:02.483Z,0.00
2022-10-06T01:54:02.475Z,0.00
2022-10-06T01:55:02.454Z,0.00
2022-10-06T01:56:02.446Z,0.00
2022-10-06T01:57:02.434Z,0.00
2022-10-06T01:58:02.422Z,0.00
2022-10-06T01:59:02.408Z,0.00
2022-10-06T02:00:02.501Z,0.00
2022-10-06T02:01:02.386Z,0.00
2022-10-06T02:02:02.516Z,0.00
2022-10-06T02:03:02.370Z,0.00
2022-10-06T02:04:02.401Z,0.00
2022-10-06T02:05:02.344Z,0.00
2022-10-06T02:06:02.395Z,0.00
2022-10-06T02:07:02.319Z,0.00
2022-10-06T02:08:02.311Z,0.00
2022-10-06T02:09:02.297Z,0.00
2022-10-06T02:10:02.290Z,0.00
2022-10-06T02:11:02.274Z,0.00
2022-10-06T02:12:02.266Z,0.00
2022-10-06T02:13:02.252Z,0.00
2022-10-06T02:14:02.245Z,0.00
2022-10-06T02:15:02.230Z,0.00
2022-10-06T02:16:02.311Z,0.00
2022-10-06T02:17:02.206Z,0.00
2022-10-06T02:18:02.198Z,0.00
2022-10-06T02:19:02.184Z,0.00
2022-10-06T02:20:02.175Z,0.00
2022-10-06T02:21:02.162Z,0.00
2022-10-06T02:22:02.163Z,0.00
2022-10-06T02:23:02.141Z,0.00
2022-10-06T02:24:02.135Z,0.00
2022-10-06T02:25:02.117Z,0.00
2022-10-06T02:26:02.109Z,0.00
2022-10-06T02:27:02.096Z,0.00
2022-10-06T02:28:02.154Z,0.00
2022-10-06T02:29:02.073Z,0.00
2022-10-06T02:30:02.064Z,0.00
2022-10-06T02:31:02.142Z,0.00
2022-10-06T02:32:02.060Z,0.00
2022-10-06T02:33:02.048Z,0.00
2022-10-06T02:34:02.021Z,0.00
2022-10-06T02:35:02.003Z,0.00
2022-10-06T02:36:01.997Z,0.00
2022-10-06T02:37:01.983Z,0.00
2022-10-06T02:38:01.974Z,0.00
2022-10-06T02:39:01.959Z,0.00
2022-10-06T02:40:01.953Z,0.00
2022-10-06T02:41:01.952Z,0.00
2022-10-06T02:42:01.928Z,0.00
2022-10-06T02:43:01.914Z,0.00
2022-10-06T02:44:01.909Z,0.00
2022-10-06T02:45:01.894Z,0.00
2022-10-06T02:46:01.884Z,0.00
2022-10-06T02:47:01.870Z,0.00
2022-10-06T02:48:01.880Z,0.00
2022-10-06T02:49:01.850Z,0.00
2022-10-06T02:50:01.841Z,0.00
2022-10-06T02:51:01.928Z,0.00
2022-10-06T02:52:01.817Z,0.00
2022-10-06T02:53:01.804Z,0.00
2022-10-06T02:54:01.794Z,0.00
2022-10-06T02:55:01.985Z,0.00
2022-10-06T02:56:01.781Z,0.00
2022-10-06T02:57:01.761Z,0.00
2022-10-06T02:58:01.751Z,0.00
2022-10-06T02:59:01.737Z,0.00
2022-10-06T03:00:01.740Z,0.00
2022-10-06T03:01:01.716Z,0.00
2022-10-06T03:02:01.808Z,0.00
2022-10-06T03:03:01.780Z,0.00
2022-10-06T03:04:01.702Z,0.00
2022-10-06T03:05:01.673Z,0.00
2022-10-06T03:06:01.661Z,0.00
2022-10-06T03:07:01.651Z,0.00
2022-10-06T03:08:01.641Z,0.00
2022-10-06T03:09:01.628Z,0.00
2022-10-06T03:10:01.624Z,0.00
2022-10-06T03:11:01.605Z,0.00
2022-10-06T03:12:01.596Z,0.00
2022-10-06T03:13:01.582Z,0.00
2022-10-06T03:14:01.575Z,0.00
2022-10-06T03:15:01.571Z,0.00
2022-10-06T03:16:01.638Z,0.00
2022-10-06T03:17:01.543Z,0.00
2022-10-06T03:18:01.534Z,0.00
2022-10-06T03:19:01.518Z,0.00
2022-10-06T03:20:01.526Z,0.00
2022-10-06T03:21:01.493Z,0.00
2022-10-06T03:22:01.483Z,0.00
2022-10-06T03:23:01.471Z,0.00
2022-10-06T03:24:01.469Z,0.00
2022-10-06T03:25:01.448Z,0.00
2022-10-06T03:26:01.444Z,0.00
2022-10-06T03:27:01.426Z,0.00
2022-10-06T03:28:01.474Z,0.00
2022-10-06T03:29:01.408Z,0.00
2022-10-06T03:30:01.398Z,0.00
2022-10-06T03:31:01.417Z,0.00
2022-10-06T03:32:01.374Z,0.00
2022-10-06T03:33:01.360Z,0.00
2022-10-06T03:34:01.351Z,0.00
2022-10-06T03:35:01.339Z,0.00
2022-10-06T03:36:01.348Z,0.00
2022-10-06T03:37:01.317Z,0.00
2022-10-06T03:38:01.308Z,0.00
2022-10-06T03:39:01.304Z,0.00
2022-10-06T03:40:01.284Z,0.00
2022-10-06T03:41:01.272Z,0.00
2022-10-06T03:42:01.264Z,0.00
2022-10-06T03:43:01.249Z,0.00
2022-10-06T03:44:01.242Z,0.00
2022-10-06T03:45:01.232Z,0.00
2022-10-06T03:46:01.218Z,0.00
2022-10-06T03:47:01.269Z,0.00
2022-10-06T03:48:01.197Z,0.00
2022-10-06T03:49:01.195Z,0.00
2022-10-06T03:50:01.175Z,0.00
2022-10-06T03:51:01.163Z,0.00
2022-10-06T03:52:01.171Z,0.00
2022-10-06T03:53:01.138Z,0.00
2022-10-06T03:54:01.130Z,0.00
2022-10-06T03:55:01.115Z,0.00
2022-10-06T03:56:01.109Z,0.00
2022-10-06T03:57:01.097Z,0.00
2022-10-06T03:58:01.086Z,0.00
2022-10-06T03:59:01.073Z,0.00
2022-10-06T04:00:01.077Z,0.00
2022-10-06T04:01:01.192Z,0.00
2022-10-06T04:02:01.074Z,0.00
2022-10-06T04:03:01.027Z,0.00
2022-10-06T04:04:01.020Z,0.00
2022-10-06T04:05:01.006Z,0.00
2022-10-06T04:06:00.997Z,0.00
2022-10-06T04:07:00.989Z,0.00
2022-10-06T04:08:00.991Z,0.00
2022-10-06T04:09:00.961Z,0.00
2022-10-06T04:10:00.953Z,0.00
2022-10-06T04:11:00.938Z,0.00
2022-10-06T04:12:00.933Z,0.00
2022-10-06T04:13:00.916Z,0.00
2022-10-06T04:14:00.907Z,0.00
2022-10-06T04:15:00.893Z,0.00
2022-10-06T04:16:00.907Z,0.00
2022-10-06T04:17:00.871Z,0.00
2022-10-06T04:18:00.962Z,0.00
2022-10-06T04:19:00.848Z,0.00
2022-10-06T04:20:00.842Z,0.00
2022-10-06T04:21:01.028Z,0.00
2022-10-06T04:22:00.820Z,0.00
2022-10-06T04:23:00.803Z,0.00
2022-10-06T04:24:00.815Z,0.00
2022-10-06T04:25:00.784Z,0.00
2022-10-06T04:26:00.778Z,0.00
2022-10-06T04:27:00.759Z,0.00
2022-10-06T04:28:00.771Z,0.00
2022-10-06T04:29:00.743Z,0.00
2022-10-06T04:30:00.728Z,0.00
2022-10-06T04:31:00.714Z,0.00
2022-10-06T04:32:00.756Z,0.00
2022-10-06T04:33:00.694Z,0.00
2022-10-06T04:34:00.734Z,0.00
2022-10-06T04:35:00.669Z,0.00
2022-10-06T04:36:00.660Z,0.00
2022-10-06T04:37:00.647Z,0.00
2022-10-06T04:38:00.637Z,0.00
2022-10-06T04:39:00.623Z,0.00
2022-10-06T04:40:00.632Z,0.00
2022-10-06T04:41:00.603Z,0.00
2022-10-06T04:42:00.606Z,0.00
2022-10-06T04:43:00.579Z,0.00
2022-10-06T04:44:00.571Z,0.00
2022-10-06T04:45:00.557Z,0.00
2022-10-06T04:46:06.442Z,0.00
2022-10-06T04:47:00.656Z,0.00
2022-10-06T04:48:00.525Z,0.00
2022-10-06T04:49:00.512Z,0.00
2022-10-06T04:50:00.501Z,0.00
2022-10-06T04:51:00.488Z,0.00
2022-10-06T04:52:00.479Z,0.00
2022-10-06T04:53:00.466Z,0.00
2022-10-06T04:54:00.459Z,0.00
2022-10-06T04:55:00.442Z,0.00
2022-10-06T04:56:00.453Z,0.00
2022-10-06T04:57:00.505Z,0.00
2022-10-06T04:58:00.410Z,0.00
2022-10-06T04:59:00.397Z,0.00
2022-10-06T05:00:05.968Z,0.00
2022-10-06T05:01:00.426Z,0.00
2022-10-06T05:02:00.409Z,0.00
2022-10-06T05:03:00.363Z,0.00
2022-10-06T05:04:00.343Z,0.00
2022-10-06T05:05:00.328Z,4.00
2022-10-06T05:06:00.322Z,4.00
2022-10-06T05:07:00.429Z,0.00
2022-10-06T05:08:00.300Z,0.00
2022-10-06T05:09:00.282Z,4.00
2022-10-06T05:10:00.279Z,4.00
2022-10-06T05:11:00.262Z,4.00
2022-10-06T05:12:00.270Z,4.00
2022-10-06T05:13:00.253Z,4.00
2022-10-06T05:14:00.230Z,4.00
2022-10-06T05:15:00.214Z,8.00
2022-10-06T05:16:00.258Z,12.00
2022-10-06T05:17:00.193Z,8.00
2022-10-06T05:18:00.181Z,12.00
2022-10-06T05:19:00.172Z,16.00
2022-10-06T05:20:00.158Z,16.00
2022-10-06T05:21:04.418Z,24.00
2022-10-06T05:22:00.136Z,24.00
2022-10-06T05:23:00.125Z,28.00
2022-10-06T05:24:00.125Z,32.00
2022-10-06T05:25:00.102Z,36.00
2022-10-06T05:26:00.090Z,40.00
2022-10-06T05:27:01.842Z,44.00
2022-10-06T05:28:00.155Z,52.00
2022-10-06T05:29:00.057Z,60.00
2022-10-06T05:30:00.046Z,64.00
2022-10-06T05:31:00.032Z,72.00
2022-10-06T05:32:00.078Z,80.00
2022-10-06T05:33:00.012Z,92.00
2022-10-06T05:33:59.998Z,96.00
2022-10-06T05:34:59.988Z,108.00
2022-10-06T05:35:59.973Z,120.00
2022-10-06T05:36:59.964Z,128.00
2022-10-06T05:37:59.954Z,140.00
2022-10-06T05:38:59.941Z,152.00
2022-10-06T05:39:59.933Z,160.00
2022-10-06T05:40:59.919Z,168.00
2022-10-06T05:41:59.905Z,188.00
2022-10-06T05:42:59.896Z,200.00
2022-10-06T05:43:59.902Z,216.00
2022-10-06T05:44:59.872Z,232.00
2022-10-06T05:45:59.948Z,244.00
2022-10-06T05:46:59.849Z,256.00
2022-10-06T05:47:59.834Z,272.00
2022-10-06T05:48:59.826Z,292.00
2022-10-06T05:49:59.813Z,304.00
2022-10-06T05:50:59.803Z,320.00
2022-10-06T05:51:59.795Z,340.00
2022-10-06T05:52:59.779Z,360.00
2022-10-06T05:53:59.772Z,376.00
2022-10-06T05:54:59.756Z,400.00
2022-10-06T05:55:59.742Z,420.00
2022-10-06T05:56:59.734Z,436.00
2022-10-06T05:57:59.735Z,452.00
2022-10-06T05:58:59.712Z,464.00
2022-10-06T05:59:59.714Z,484.00
2022-10-06T06:00:59.689Z,500.00
2022-10-06T06:01:59.830Z,516.00
2022-10-06T06:02:59.772Z,528.00
2022-10-06T06:03:59.688Z,540.00
2022-10-06T06:04:59.648Z,544.00
2022-10-06T06:05:59.652Z,556.00
2022-10-06T06:06:59.686Z,572.00
2022-10-06T06:07:59.603Z,592.00
2022-10-06T06:08:59.595Z,612.00
2022-10-06T06:09:59.583Z,632.00
2022-10-06T06:10:59.573Z,640.00
2022-10-06T06:11:59.558Z,648.00
2022-10-06T06:12:59.548Z,644.00
2022-10-06T06:13:59.534Z,640.00
2022-10-06T06:14:59.525Z,652.00
2022-10-06T06:15:59.530Z,656.00
2022-10-06T06:16:59.538Z,664.00
2022-10-06T06:17:59.489Z,716.00
2022-10-06T06:18:59.479Z,752.00
2022-10-06T06:19:59.464Z,780.00
2022-10-06T06:20:59.458Z,808.00
2022-10-06T06:21:59.443Z,840.00
2022-10-06T06:22:59.433Z,868.00
2022-10-06T06:23:59.419Z,876.00
2022-10-06T06:24:59.410Z,888.00
2022-10-06T06:26:02.247Z,896.00
2022-10-06T06:26:59.385Z,912.00
2022-10-06T06:27:59.410Z,920.00
2022-10-06T06:28:59.362Z,936.00
2022-10-06T06:29:59.350Z,952.00
2022-10-06T06:30:59.367Z,964.00
2022-10-06T06:31:59.344Z,984.00
2022-10-06T06:32:59.332Z,1000.00
2022-10-06T06:33:59.307Z,1008.00
2022-10-06T06:34:59.291Z,1036.00
2022-10-06T06:35:59.281Z,1068.00
2022-10-06T06:37:03.778Z,1084.00
2022-10-06T06:37:59.257Z,1088.00
2022-10-06T06:38:59.246Z,1100.00
2022-10-06T06:39:59.234Z,1124.00
2022-10-06T06:40:59.224Z,1128.00
2022-10-06T06:41:59.212Z,1124.00
2022-10-06T06:42:59.215Z,1120.00
2022-10-06T06:43:59.189Z,1124.00
2022-10-06T06:44:59.179Z,1132.00
2022-10-06T06:45:59.216Z,1144.00
2022-10-06T06:46:59.154Z,1164.00
2022-10-06T06:47:59.162Z,1192.00
2022-10-06T06:48:59.133Z,1212.00
2022-10-06T06:49:59.126Z,1236.00
2022-10-06T06:50:59.110Z,1264.00
2022-10-06T06:51:59.096Z,1288.00
2022-10-06T06:52:59.088Z,1312.00
2022-10-06T06:53:59.077Z,1324.00
2022-10-06T06:54:59.065Z,1328.00
2022-10-06T06:55:59.053Z,1336.00
2022-10-06T06:56:59.054Z,1340.00
2022-10-06T06:57:59.032Z,1348.00
2022-10-06T06:58:59.021Z,1332.00
2022-10-06T06:59:59.008Z,1380.00
2022-10-06T07:00:59.046Z,1400.00
2022-10-06T07:01:59.091Z,1404.00
2022-10-06T07:02:58.977Z,1420.00
2022-10-06T07:03:59.352Z,1432.00
2022-10-06T07:04:58.956Z,1440.00
2022-10-06T07:05:58.943Z,1452.00
2022-10-06T07:07:58.923Z,1480.00
2022-10-06T07:08:58.915Z,1524.00
2022-10-06T07:09:58.910Z,1564.00
2022-10-06T07:10:58.888Z,1572.00
2022-10-06T07:11:58.900Z,1568.00
2022-10-06T07:12:58.870Z,1564.00
2022-10-06T07:13:58.872Z,1556.00
2022-10-06T07:14:58.854Z,1560.00
2022-10-06T07:15:58.871Z,1604.00
2022-10-06T07:16:58.828Z,1656.00
2022-10-06T07:17:58.818Z,1688.00
2022-10-06T07:18:58.804Z,1696.00
2022-10-06T07:19:58.814Z,1680.00
2022-10-06T07:20:58.784Z,1672.00
2022-10-06T07:21:58.776Z,1672.00
2022-10-06T07:22:58.774Z,1680.00
2022-10-06T07:23:58.756Z,1704.00
2022-10-06T07:24:58.744Z,1740.00
2022-10-06T07:25:58.734Z,1756.00
2022-10-06T07:26:58.719Z,1760.00
2022-10-06T07:27:58.799Z,1776.00
2022-10-06T07:28:58.702Z,1816.00
2022-10-06T07:29:58.695Z,1900.00
2022-10-06T07:30:58.727Z,1988.00
2022-10-06T07:31:58.673Z,1996.00
2022-10-06T07:32:58.661Z,1984.00
2022-10-06T07:33:58.653Z,1956.00
2022-10-06T07:34:58.642Z,1908.00
2022-10-06T07:35:58.651Z,1864.00
2022-10-06T07:37:02.718Z,1836.00
2022-10-06T07:37:58.614Z,1816.00
2022-10-06T07:38:58.612Z,1828.00
2022-10-06T07:39:58.593Z,1824.00
2022-10-06T07:41:58.586Z,1820.00
2022-10-06T07:42:58.563Z,1684.00
2022-10-06T07:43:58.555Z,1584.00
2022-10-06T07:44:58.544Z,1480.00
2022-10-06T07:45:58.585Z,1380.00
2022-10-06T07:46:58.526Z,1324.00
2022-10-06T07:47:58.514Z,1356.00
2022-10-06T07:49:58.500Z,1480.00
2022-10-06T07:50:58.485Z,1516.00
2022-10-06T07:51:58.519Z,1520.00
2022-10-06T07:52:58.467Z,1508.00
2022-10-06T07:53:58.460Z,1468.00
2022-10-06T07:54:58.486Z,1420.00
2022-10-06T07:55:58.440Z,1364.00
2022-10-06T07:56:58.430Z,1316.00
2022-10-06T07:57:58.426Z,1264.00
2022-10-06T07:58:58.412Z,1236.00
2022-10-06T08:00:02.838Z,1244.00
2022-10-06T08:00:58.392Z,1264.00
2022-10-06T08:01:58.444Z,1288.00
2022-10-06T08:02:58.417Z,1312.00
2022-10-06T08:03:58.365Z,1348.00
2022-10-06T08:04:58.353Z,1380.00
2022-10-06T08:05:58.347Z,1400.00
2022-10-06T08:06:58.336Z,1428.00
2022-10-06T08:07:58.346Z,1448.00
2022-10-06T08:08:58.314Z,1452.00
2022-10-06T08:09:58.311Z,1456.00
2022-10-06T08:11:00.371Z,1468.00
2022-10-06T08:11:58.289Z,1504.00
2022-10-06T08:12:58.277Z,1552.00
2022-10-06T08:13:58.269Z,1596.00
2022-10-06T08:15:00.701Z,1616.00
2022-10-06T08:15:58.331Z,1592.00
2022-10-06T08:16:58.240Z,1552.00
2022-10-06T08:17:58.232Z,1488.00
2022-10-06T08:18:58.221Z,1588.00
2022-10-06T08:19:58.214Z,1480.00
2022-10-06T08:20:58.210Z,1440.00
2022-10-06T08:22:02.491Z,1436.00
2022-10-06T08:22:58.194Z,1464.00
2022-10-06T08:23:58.266Z,1500.00
2022-10-06T08:25:06.850Z,1536.00
2022-10-06T08:25:58.164Z,1568.00
2022-10-06T08:26:58.144Z,1612.00
2022-10-06T08:27:58.209Z,1672.00
2022-10-06T08:28:58.125Z,1752.00
2022-10-06T08:29:58.174Z,1836.00
2022-10-06T08:30:58.167Z,1780.00
2022-10-06T08:31:58.163Z,1708.00
2022-10-06T08:32:58.087Z,1652.00
2022-10-06T08:33:58.086Z,1616.00
2022-10-06T08:34:58.668Z,1600.00
2022-10-06T08:35:58.063Z,1596.00
2022-10-06T08:37:15.828Z,1596.00
2022-10-06T08:37:58.046Z,1592.00
2022-10-06T08:38:58.033Z,1580.00
2022-10-06T08:39:58.046Z,1564.00
2022-10-06T08:40:58.017Z,1548.00
2022-10-06T08:41:58.011Z,1536.00
2022-10-06T08:42:58.003Z,1516.00
2022-10-06T08:43:57.992Z,1504.00
2022-10-06T08:44:58.162Z,1492.00
2022-10-06T08:45:57.979Z,1468.00
2022-10-06T08:46:57.963Z,1452.00
2022-10-06T08:47:57.958Z,1444.00
2022-10-06T08:48:57.947Z,1440.00
2022-10-06T08:49:58.639Z,1436.00
2022-10-06T08:50:57.927Z,1436.00
2022-10-06T08:51:57.921Z,1448.00
2022-10-06T08:52:57.911Z,1464.00
2022-10-06T08:53:57.904Z,1488.00
2022-10-06T08:54:57.892Z,1516.00
2022-10-06T08:55:57.905Z,1540.00
2022-10-06T08:56:57.877Z,1568.00
2022-10-06T08:57:57.903Z,1596.00
2022-10-06T08:58:57.858Z,1628.00
2022-10-06T08:59:58.207Z,1656.00
2022-10-06T09:00:57.899Z,1684.00
2022-10-06T09:01:57.913Z,1700.00
2022-10-06T09:02:57.824Z,1712.00
2022-10-06T09:03:57.817Z,1716.00
2022-10-06T09:04:57.806Z,1728.00
2022-10-06T09:05:57.802Z,1728.00
2022-10-06T09:06:57.788Z,1732.00
2022-10-06T09:07:57.782Z,1748.00
2022-10-06T09:08:57.773Z,1780.00
2022-10-06T09:09:58.159Z,1816.00
2022-10-06T09:10:57.753Z,1856.00
2022-10-06T09:11:57.767Z,1908.00
2022-10-06T09:12:57.740Z,1948.00
2022-10-06T09:13:57.731Z,1988.00
2022-10-06T09:14:57.721Z,2000.00
2022-10-06T09:15:57.812Z,2012.00
2022-10-06T09:16:57.704Z,2040.00
2022-10-06T09:17:57.698Z,2064.00
2022-10-06T09:19:08.292Z,2100.00
2022-10-06T09:19:58.066Z,2140.00
2022-10-06T09:22:57.655Z,2240.00
2022-10-06T09:23:57.673Z,2248.00
2022-10-06T09:24:57.643Z,2260.00
2022-10-06T09:25:57.653Z,2260.00
2022-10-06T09:26:57.618Z,2260.00
2022-10-06T09:27:57.700Z,2264.00
2022-10-06T09:28:57.606Z,2268.00
2022-10-06T09:29:58.252Z,2256.00
2022-10-06T09:30:57.641Z,2260.00
2022-10-06T09:31:57.581Z,2300.00
2022-10-06T09:32:57.571Z,2304.00
2022-10-06T09:33:57.566Z,2320.00
2022-10-06T09:34:57.556Z,2344.00
2022-10-06T09:35:57.548Z,2308.00
2022-10-06T09:37:01.076Z,2280.00
2022-10-06T09:37:57.535Z,2272.00
2022-10-06T09:38:57.525Z,2292.00
2022-10-06T09:39:57.945Z,2376.00
2022-10-06T09:40:57.510Z,2780.00
2022-10-06T09:41:57.503Z,2932.00
2022-10-06T09:42:57.511Z,2956.00
2022-10-06T09:43:57.514Z,2956.00
2022-10-06T09:44:57.694Z,2896.00
2022-10-06T09:45:57.491Z,2748.00
2022-10-06T09:46:57.464Z,2660.00
2022-10-06T09:47:57.455Z,2664.00
2022-10-06T09:48:57.449Z,2460.00
2022-10-06T09:49:57.973Z,2240.00
2022-10-06T09:50:57.437Z,2028.00
2022-10-06T09:51:57.425Z,2264.00
2022-10-06T09:52:57.427Z,2256.00
2022-10-06T09:53:57.412Z,2248.00
2022-10-06T09:54:57.408Z,2228.00
2022-10-06T09:55:57.399Z,2212.00
2022-10-06T09:56:57.444Z,2208.00
2022-10-06T09:57:57.387Z,2208.00
2022-10-06T09:58:57.395Z,2216.00
2022-10-06T09:59:57.839Z,2216.00
2022-10-06T10:00:57.423Z,2196.00
2022-10-06T10:01:57.357Z,2184.00
2022-10-06T10:02:57.445Z,2176.00
2022-10-06T10:04:18.852Z,2168.00
2022-10-06T10:04:57.337Z,2164.00
2022-10-06T10:05:57.329Z,2168.00
2022-10-06T10:06:57.325Z,2180.00
2022-10-06T10:07:57.314Z,2196.00
2022-10-06T10:08:57.312Z,2216.00
2022-10-06T10:09:57.694Z,2252.00
2022-10-06T10:10:57.297Z,2272.00
2022-10-06T10:11:57.288Z,2308.00
2022-10-06T10:12:57.284Z,2288.00
2022-10-06T10:13:57.277Z,2264.00
2022-10-06T10:14:57.271Z,2268.00
2022-10-06T10:15:57.349Z,2296.00
2022-10-06T10:16:57.258Z,2380.00
2022-10-06T10:17:57.257Z,2400.00
2022-10-06T10:18:57.247Z,2400.00
2022-10-06T10:19:57.630Z,2392.00
2022-10-06T10:20:57.232Z,2420.00
2022-10-06T10:21:57.223Z,2428.00
2022-10-06T10:22:57.220Z,2436.00
2022-10-06T10:23:57.210Z,2460.00
2022-10-06T10:24:57.209Z,2508.00
2022-10-06T10:25:57.199Z,2600.00
2022-10-06T10:26:57.205Z,2692.00
2022-10-06T10:27:57.262Z,2708.00
2022-10-06T10:28:57.190Z,2708.00
2022-10-06T10:29:57.517Z,2712.00
2022-10-06T10:30:57.194Z,2780.00
2022-10-06T10:31:57.189Z,2804.00
2022-10-06T10:34:12.007Z,2820.00
2022-10-06T10:34:57.337Z,2824.00
2022-10-06T10:35:57.142Z,2836.00
2022-10-06T10:36:57.132Z,2836.00
2022-10-06T10:37:57.128Z,2828.00
2022-10-06T10:38:57.121Z,2824.00
2022-10-06T10:39:57.116Z,2832.00
2022-10-06T10:40:57.112Z,2836.00
2022-10-06T10:41:57.107Z,2852.00
2022-10-06T10:42:57.098Z,2868.00
2022-10-06T10:43:59.623Z,2860.00
2022-10-06T10:44:57.413Z,2852.00
2022-10-06T10:45:57.085Z,2844.00
2022-10-06T10:46:57.170Z,2828.00
2022-10-06T10:47:57.091Z,2812.00
2022-10-06T10:48:57.065Z,2812.00
2022-10-06T10:49:57.063Z,2828.00
2022-10-06T10:50:57.067Z,2736.00
2022-10-06T10:51:57.133Z,2696.00
2022-10-06T10:52:57.045Z,2656.00
2022-10-06T10:53:57.043Z,2468.00
2022-10-06T10:54:57.347Z,2664.00
2022-10-06T10:55:57.031Z,2644.00
2022-10-06T10:56:57.023Z,2704.00
2022-10-06T10:57:57.026Z,2724.00
2022-10-06T10:58:57.014Z,2768.00
2022-10-06T10:59:57.010Z,2788.00
2022-10-06T11:00:57.064Z,2720.00
2022-10-06T11:01:57.122Z,2508.00
2022-10-06T11:02:56.994Z,2492.00
2022-10-06T11:03:57.010Z,2460.00
2022-10-06T11:04:57.285Z,2316.00
2022-10-06T11:05:56.980Z,2196.00
2022-10-06T11:06:56.982Z,2224.00
2022-10-06T11:07:56.969Z,2288.00
2022-10-06T11:08:56.962Z,2408.00
2022-10-06T11:09:56.960Z,2420.00
2022-10-06T11:10:56.954Z,2392.00
2022-10-06T11:11:56.949Z,2232.00
2022-10-06T11:12:56.952Z,2068.00
2022-10-06T11:13:56.955Z,2296.00
2022-10-06T11:14:57.220Z,2344.00
2022-10-06T11:15:56.972Z,2352.00
2022-10-06T11:16:56.923Z,2332.00
2022-10-06T11:17:56.925Z,2292.00
2022-10-06T11:18:56.923Z,2168.00
2022-10-06T11:19:56.930Z,2332.00
2022-10-06T11:20:56.903Z,2344.00
2022-10-06T11:21:56.900Z,2320.00
2022-10-06T11:22:56.899Z,2292.00
2022-10-06T11:23:56.889Z,2352.00
2022-10-06T11:24:57.371Z,2368.00
2022-10-06T11:25:56.878Z,2376.00
2022-10-06T11:26:56.869Z,2380.00
2022-10-06T11:27:56.910Z,2384.00
2022-10-06T11:28:56.860Z,2404.00
2022-10-06T11:29:57.220Z,2432.00
2022-10-06T11:30:56.847Z,2408.00
2022-10-06T11:31:56.980Z,2396.00
2022-10-06T11:32:56.837Z,2376.00
2022-10-06T11:33:56.918Z,2372.00
2022-10-06T11:34:56.841Z,2384.00
2022-10-06T11:35:56.841Z,2428.00
2022-10-06T11:36:56.814Z,2480.00
2022-10-06T11:37:56.812Z,2524.00
2022-10-06T11:38:56.804Z,2540.00
2022-10-06T11:39:57.112Z,2516.00
2022-10-06T11:40:56.795Z,2508.00
2022-10-06T11:41:56.790Z,2508.00
2022-10-06T11:42:56.798Z,2500.00
2022-10-06T11:43:56.780Z,2508.00
2022-10-06T11:44:57.085Z,2476.00
2022-10-06T11:45:56.847Z,2432.00
2022-10-06T11:46:56.762Z,2452.00
2022-10-06T11:47:56.760Z,2472.00
2022-10-06T11:48:56.753Z,2496.00
2022-10-06T11:49:56.749Z,2472.00
2022-10-06T11:50:56.742Z,2468.00
2022-10-06T11:51:59.296Z,2484.00
2022-10-06T11:52:56.734Z,2480.00
2022-10-06T11:53:56.734Z,2476.00
2022-10-06T11:54:57.132Z,2476.00
2022-10-06T11:55:56.719Z,2480.00
2022-10-06T11:56:56.714Z,2484.00
2022-10-06T11:57:56.710Z,2480.00
2022-10-06T11:58:56.704Z,2488.00
2022-10-06T11:59:56.706Z,2492.00
2022-10-06T12:00:56.694Z,2516.00
2022-10-06T12:01:56.881Z,2536.00
2022-10-06T12:02:56.849Z,2544.00
2022-10-06T12:03:56.681Z,2552.00
2022-10-06T12:04:56.834Z,2568.00
2022-10-06T12:05:57.374Z,2596.00
2022-10-06T12:06:56.663Z,2624.00
2022-10-06T12:07:56.685Z,2596.00
2022-10-06T12:08:56.654Z,2584.00
2022-10-06T12:09:56.653Z,2604.00
2022-10-06T12:10:56.644Z,2628.00
2022-10-06T12:11:56.644Z,2656.00
2022-10-06T12:13:06.585Z,2656.00
2022-10-06T12:17:18.304Z,2640.00
2022-10-06T12:17:56.617Z,2624.00
2022-10-06T12:18:56.618Z,2612.00
2022-10-06T12:19:56.607Z,2584.00
2022-10-06T12:20:56.598Z,2576.00
2022-10-06T12:21:56.596Z,2584.00
2022-10-06T12:22:56.589Z,2588.00
2022-10-06T12:23:56.666Z,2600.00
2022-10-06T12:24:56.815Z,2604.00
2022-10-06T12:25:56.578Z,2608.00
2022-10-06T12:26:56.571Z,2576.00
2022-10-06T12:27:56.621Z,2568.00
2022-10-06T12:28:56.562Z,2560.00
2022-10-06T12:29:56.942Z,2572.00
2022-10-06T12:30:56.619Z,2612.00
2022-10-06T12:31:56.552Z,2620.00
2022-10-06T12:32:56.547Z,2628.00
2022-10-06T12:33:56.548Z,2592.00
2022-10-06T12:34:56.858Z,2560.00
2022-10-06T12:35:56.535Z,2588.00
2022-10-06T12:36:56.529Z,2592.00
2022-10-06T12:37:56.531Z,2628.00
2022-10-06T12:38:56.520Z,2648.00
2022-10-06T12:39:56.596Z,2656.00
2022-10-06T12:40:56.511Z,2636.00
2022-10-06T12:41:56.513Z,2624.00
2022-10-06T12:42:56.504Z,2600.00
2022-10-06T12:43:56.502Z,2568.00
2022-10-06T12:44:56.774Z,2564.00
2022-10-06T12:45:56.598Z,2568.00
2022-10-06T12:46:56.487Z,2564.00
2022-10-06T12:47:56.485Z,2516.00